Time;durP1;ratioP1;P1;durP2;ratioP2;P2;SDS_P1;SDS_P2;PMS_P1;PMS_P2;Temp;Humidity;BMP_temperature;BMP_pressure;BME280_temperature;BME280_humidity;BME280_pressure;Samples;Min_cycle;Max_cycle;Signal;HPM_P1;HPM_P2
2021/05/28 00:02:39;;;;;;;22.40;7.87;;;;;;;9.48;67.50;99021.81;2168920;81;21089;-66
2021/05/28 00:05:39;;;;;;;22.15;7.40;;;;;;;9.35;68.32;99018.99;2168877;82;21000;-62
2021/05/28 00:08:39;;;;;;;19.82;7.08;;;;;;;9.18;70.64;99017.29;2168608;82;21106;-64
2021/05/28 00:11:40;;;;;;;22.62;7.60;;;;;;;9.08;69.72;99022.14;2168579;82;21078;-61
2021/05/28 00:14:41;;;;;;;19.73;6.78;;;;;;;8.97;71.07;99022.69;2168877;82;21034;-64
2021/05/28 00:17:42;;;;;;;23.87;7.45;;;;;;;8.84;70.53;99021.62;2168564;82;21022;-64
2021/05/28 00:20:42;;;;;;;22.30;7.80;;;;;;;8.75;69.42;99026.00;2169012;82;21593;-62
2021/05/28 00:23:42;;;;;;;22.82;7.22;;;;;;;8.64;69.47;99020.85;2168872;82;21592;-61
2021/05/28 00:26:43;;;;;;;20.08;6.85;;;;;;;8.57;69.09;99019.47;2168840;82;20979;-64
2021/05/28 00:29:43;;;;;;;19.75;6.92;;;;;;;8.52;69.23;99022.79;2168635;82;21006;-62
2021/05/28 00:32:44;;;;;;;22.13;7.92;;;;;;;8.46;69.31;99018.70;2168759;82;21037;-63
2021/05/28 00:35:45;;;;;;;35.33;14.65;;;;;;;8.47;69.66;99022.16;2168680;82;21249;-61
2021/05/28 00:38:46;;;;;;;26.17;10.30;;;;;;;8.54;69.54;99029.24;2168596;82;21066;-61
2021/05/28 00:41:46;;;;;;;25.62;10.78;;;;;;;8.54;69.41;99024.02;2168882;82;21381;-62
2021/05/28 00:44:47;;;;;;;23.83;9.73;;;;;;;8.48;69.56;99027.77;2168718;82;21126;-62
2021/05/28 00:47:47;;;;;;;23.70;7.90;;;;;;;8.40;69.50;99025.95;2168585;82;21002;-60
2021/05/28 00:50:48;;;;;;;22.15;8.18;;;;;;;8.35;69.93;99026.63;2168871;82;21002;-62
2021/05/28 00:53:48;;;;;;;24.37;7.78;;;;;;;8.35;70.22;99034.47;2168828;82;21018;-64
2021/05/28 00:56:49;;;;;;;22.00;7.25;;;;;;;8.37;70.26;99040.02;2168839;82;21085;-64
2021/05/28 00:59:51;;;;;;;23.83;7.42;;;;;;;8.40;70.14;99039.03;2168621;82;21561;-64
2021/05/28 01:02:52;;;;;;;24.55;8.13;;;;;;;8.42;70.21;99044.58;2170621;82;21134;-64
2021/05/28 01:05:52;;;;;;;25.40;8.35;;;;;;;8.34;70.65;99046.70;2172254;82;21074;-64
2021/05/28 01:08:53;;;;;;;25.40;8.20;;;;;;;8.22;71.19;99053.38;2172576;82;21521;-64
2021/05/28 01:11:53;;;;;;;21.65;8.18;;;;;;;8.06;71.29;99048.47;2172442;82;21640;-63
2021/05/28 01:14:54;;;;;;;22.13;7.78;;;;;;;7.95;71.50;99047.69;2172437;82;21022;-59
2021/05/28 01:17:54;;;;;;;24.20;7.70;;;;;;;7.87;71.88;99048.48;2172513;82;21013;-61
2021/05/28 01:20:54;;;;;;;20.68;7.12;;;;;;;7.85;72.09;99047.73;2172592;82;21010;-59
2021/05/28 01:23:55;;;;;;;29.60;9.60;;;;;;;7.89;72.13;99050.12;2172484;82;20998;-63
2021/05/28 01:26:55;;;;;;;42.75;15.75;;;;;;;7.92;71.78;99044.75;2172738;82;20983;-64
2021/05/28 01:29:56;;;;;;;27.00;10.18;;;;;;;7.93;71.73;99047.75;2172667;82;21093;-64
2021/05/28 01:32:56;;;;;;;22.55;8.28;;;;;;;7.93;71.69;99045.58;2172569;82;21676;-64
2021/05/28 01:35:58;;;;;;;30.75;12.25;;;;;;;7.92;71.77;99053.89;2172476;82;21608;-63
2021/05/28 01:38:59;;;;;;;25.82;8.63;;;;;;;8.06;72.07;99054.56;2172826;81;21046;-63
2021/05/28 01:41:59;;;;;;;25.88;9.20;;;;;;;8.12;71.57;99058.66;2172740;82;21540;-64
2021/05/28 01:45:02;;;;;;;22.82;7.58;;;;;;;7.97;71.49;99049.75;2172489;82;21527;-63
2021/05/28 01:48:02;;;;;;;19.32;6.40;;;;;;;7.86;71.40;99046.34;2145842;82;21045;-62
2021/05/28 01:51:03;;;;;;;20.45;6.62;;;;;;;7.77;71.42;99051.98;2172375;82;21564;-61
2021/05/28 01:54:03;;;;;;;20.50;6.62;;;;;;;7.74;71.32;99056.04;2172502;82;21058;-60
2021/05/28 01:57:04;;;;;;;21.55;7.90;;;;;;;7.62;71.47;99058.76;2172288;82;21045;-60
2021/05/28 02:00:04;;;;;;;21.37;7.95;;;;;;;7.60;71.86;99061.88;2172534;82;21066;-60
2021/05/28 02:03:05;;;;;;;25.92;9.65;;;;;;;7.61;72.19;99063.58;2170728;82;21042;-63
2021/05/28 02:06:05;;;;;;;24.80;9.20;;;;;;;7.58;72.18;99071.09;2168858;82;20998;-63
2021/05/28 02:09:05;;;;;;;29.02;9.48;;;;;;;7.57;72.63;99068.55;2169136;82;21093;-61
2021/05/28 02:12:06;;;;;;;24.05;9.80;;;;;;;7.59;72.48;99066.27;2169084;82;21517;-62
2021/05/28 02:15:06;;;;;;;24.67;10.00;;;;;;;7.59;72.82;99066.27;2168753;82;21559;-60
2021/05/28 02:18:07;;;;;;;25.32;9.20;;;;;;;7.61;72.92;99068.80;2168704;82;21030;-62
2021/05/28 02:21:07;;;;;;;25.40;9.25;;;;;;;7.60;72.62;99067.97;2168880;82;21022;-62
2021/05/28 02:24:11;;;;;;;25.35;9.75;;;;;;;7.60;73.00;99072.32;2168925;82;21116;-61
2021/05/28 02:27:10;;;;;;;23.73;8.50;;;;;;;7.57;72.78;99069.84;2150516;82;21554;-60
2021/05/28 02:30:10;;;;;;;26.27;8.58;;;;;;;7.59;72.86;99078.01;2169093;82;21074;-61
2021/05/28 02:33:11;;;;;;;25.48;9.95;;;;;;;7.57;73.10;99068.11;2168951;82;21034;-59
2021/05/28 02:36:11;;;;;;;24.85;9.53;;;;;;;7.55;73.16;99073.00;2169053;82;21010;-61
2021/05/28 02:39:12;;;;;;;23.35;8.55;;;;;;;7.52;73.36;99083.58;2168979;82;21500;-62
2021/05/28 02:42:12;;;;;;;24.02;8.73;;;;;;;7.39;73.19;99080.66;2181543;80;22222;-63
2021/05/28 02:45:13;;;;;;;23.35;8.83;;;;;;;7.35;73.08;99094.29;2188079;81;21077;-60
2021/05/28 02:48:13;;;;;;;23.27;8.85;;;;;;;7.32;73.31;99088.38;2188147;81;21033;-61
2021/05/28 02:51:14;;;;;;;23.12;8.95;;;;;;;7.29;73.52;99091.95;2188196;81;21010;-63
2021/05/28 02:54:15;;;;;;;23.80;8.65;;;;;;;7.25;74.26;99083.86;2187877;81;21088;-62
2021/05/28 02:57:15;;;;;;;22.02;8.68;;;;;;;7.24;73.96;99086.08;2188266;81;21021;-64
2021/05/28 03:00:16;;;;;;;22.75;8.50;;;;;;;7.28;74.12;99091.12;2188160;81;21513;-63
2021/05/28 03:03:16;;;;;;;22.22;8.33;;;;;;;7.29;74.59;99090.18;2191185;81;21601;-63
2021/05/28 03:06:17;;;;;;;24.25;8.83;;;;;;;7.33;74.64;99090.08;2189994;80;21056;-64
2021/05/28 03:09:18;;;;;;;23.30;9.00;;;;;;;7.39;74.79;99095.86;2172552;82;21085;-64
2021/05/28 03:12:18;;;;;;;24.45;8.80;;;;;;;7.46;74.81;99088.61;2172605;82;21584;-65
2021/05/28 03:15:18;;;;;;;22.05;8.60;;;;;;;7.56;74.75;99090.37;2172407;82;20978;-65
2021/05/28 03:18:21;;;;;;;24.43;8.38;;;;;;;7.73;74.70;99090.89;2172390;82;20983;-65
2021/05/28 03:24:24;;;;;;;23.70;9.33;;;;;;;8.09;74.58;99092.77;2146843;81;21066;-63
2021/05/28 03:27:25;;;;;;;24.12;9.90;;;;;;;8.26;74.35;99096.73;2183353;80;21527;-64
2021/05/28 03:30:26;;;;;;;25.77;10.10;;;;;;;8.40;73.87;99101.28;2182654;81;21049;-64
2021/05/28 03:33:27;;;;;;;26.17;9.90;;;;;;;8.49;73.66;99102.64;2182678;82;21081;-64
2021/05/28 03:36:28;;;;;;;43.23;17.65;;;;;;;8.56;73.61;99092.75;2182195;81;21065;-61
2021/05/28 03:39:28;;;;;;;45.83;18.90;;;;;;;8.64;73.59;99095.38;2198860;80;20990;-62
2021/05/28 03:42:30;;;;;;;38.08;15.90;;;;;;;8.77;73.47;99099.55;2217796;80;21575;-61
2021/05/28 03:45:31;;;;;;;34.67;13.80;;;;;;;8.80;73.42;99105.92;2217620;80;21041;-63
2021/05/28 03:48:32;;;;;;;28.47;12.07;;;;;;;8.83;73.31;99110.17;2217793;80;21634;-63
2021/05/28 03:51:34;;;;;;;34.35;14.58;;;;;;;8.89;73.46;99107.23;2217757;80;21125;-62
2021/05/28 03:54:35;;;;;;;34.00;13.32;;;;;;;9.03;73.06;99107.88;2214949;80;21587;-60
2021/05/28 03:57:35;;;;;;;27.17;10.58;;;;;;;9.04;73.03;99114.80;2179720;81;21049;-65
2021/05/28 04:00:36;;;;;;;27.00;10.05;;;;;;;8.98;73.33;99113.34;2172670;82;21536;-65
2021/05/28 04:03:36;;;;;;;22.50;8.88;;;;;;;8.88;73.59;99115.16;2172550;82;21588;-64
2021/05/28 04:06:37;;;;;;;23.87;9.38;;;;;;;8.87;73.44;99112.19;2172379;82;21137;-62
2021/05/28 04:09:37;;;;;;;25.35;8.10;;;;;;;8.91;73.47;99115.05;2172398;82;21026;-63
2021/05/28 04:12:38;;;;;;;23.80;9.03;;;;;;;8.90;73.39;99108.94;2172457;82;21014;-65
2021/05/28 04:15:38;;;;;;;24.27;9.13;;;;;;;8.99;73.48;99110.25;2172265;82;21060;-63
2021/05/28 04:18:39;;;;;;;23.05;9.40;;;;;;;9.08;73.23;99115.48;2172477;82;21037;-64
2021/05/28 04:21:40;;;;;;;25.75;10.35;;;;;;;9.14;73.04;99116.50;2172604;82;21532;-65
2021/05/28 04:24:40;;;;;;;24.20;10.28;;;;;;;9.24;73.16;99117.73;2172319;82;20982;-61
2021/05/28 04:27:41;;;;;;;25.05;10.38;;;;;;;9.21;72.96;99120.50;2172408;82;20978;-64
2021/05/28 04:30:41;;;;;;;25.52;10.50;;;;;;;9.17;73.10;99123.72;2172301;82;21082;-65
2021/05/28 04:33:41;;;;;;;24.87;10.35;;;;;;;9.15;73.22;99123.41;2172333;81;21090;-66
2021/05/28 04:36:42;;;;;;;22.58;8.65;;;;;;;9.23;73.17;99121.73;2172287;82;20990;-65
2021/05/28 04:39:42;;;;;;;23.27;9.88;;;;;;;9.47;73.32;99122.25;2172361;82;21010;-65
2021/05/28 04:42:43;;;;;;;23.40;10.15;;;;;;;9.76;73.41;99121.19;2172540;82;21018;-63
2021/05/28 04:45:43;;;;;;;23.75;9.80;;;;;;;10.06;72.80;99124.77;2172403;82;20983;-65
2021/05/28 04:48:44;;;;;;;23.85;9.23;;;;;;;10.27;72.86;99120.62;2172057;82;21144;-64
2021/05/28 04:51:44;;;;;;;23.95;8.75;;;;;;;10.45;72.76;99127.12;2170938;82;21565;-64
2021/05/28 04:54:45;;;;;;;25.00;9.88;;;;;;;10.40;72.59;99122.10;2171674;82;21082;-64
2021/05/28 04:57:45;;;;;;;21.23;8.93;;;;;;;10.49;73.03;99115.53;2171745;82;21025;-63
2021/05/28 05:00:46;;;;;;;22.22;7.35;;;;;;;10.73;72.84;99108.89;2171736;82;20982;-66
2021/05/28 05:03:46;;;;;;;20.37;7.28;;;;;;;10.82;73.85;99110.58;2171523;82;21091;-61
2021/05/28 05:06:47;;;;;;;19.32;7.37;;;;;;;10.92;73.20;99111.77;2172500;82;21061;-63
2021/05/28 05:09:47;;;;;;;21.65;7.17;;;;;;;10.90;72.00;99120.18;2172404;82;21505;-64
2021/05/28 05:12:47;;;;;;;20.27;7.78;;;;;;;11.00;72.69;99121.81;2172545;82;21521;-64
2021/05/28 05:15:48;;;;;;;19.42;6.65;;;;;;;11.06;73.10;99121.00;2172189;82;21086;-65
2021/05/28 05:18:50;;;;;;;19.20;7.00;;;;;;;11.07;72.00;99131.02;2172341;82;21006;-65
2021/05/28 05:21:52;;;;;;;18.75;7.05;;;;;;;11.15;71.54;99119.61;2172688;82;21054;-65
2021/05/28 05:24:53;;;;;;;18.85;6.70;;;;;;;11.34;71.78;99125.09;2172669;81;21173;-64
2021/05/28 05:27:53;;;;;;;18.87;6.25;;;;;;;11.56;70.45;99132.05;2172328;82;20971;-61
2021/05/28 05:30:54;;;;;;;18.87;6.80;;;;;;;11.75;71.54;99132.25;2172538;82;20971;-64
2021/05/28 05:33:54;;;;;;;18.27;6.08;;;;;;;11.98;69.43;99140.06;2172556;82;21639;-64
2021/05/28 05:36:55;;;;;;;18.60;6.42;;;;;;;12.02;69.71;99143.36;2172478;81;21038;-61
2021/05/28 05:39:56;;;;;;;17.95;5.90;;;;;;;12.10;69.83;99145.05;2172203;82;21532;-62
2021/05/28 05:42:56;;;;;;;19.07;6.17;;;;;;;12.27;68.55;99147.47;2172325;82;21120;-63
2021/05/28 05:45:56;;;;;;;17.07;5.60;;;;;;;12.51;68.83;99135.48;2172400;82;21049;-64
2021/05/28 05:48:57;;;;;;;20.23;6.35;;;;;;;12.67;65.82;99140.15;2172335;81;21025;-61
2021/05/28 05:51:58;;;;;;;16.85;6.00;;;;;;;12.74;67.19;99136.17;2172515;82;21046;-61
2021/05/28 05:54:58;;;;;;;17.75;6.10;;;;;;;13.00;67.74;99131.82;2172290;82;21584;-62
2021/05/28 05:57:59;;;;;;;18.42;5.85;;;;;;;13.23;67.97;99136.03;2172550;82;21527;-62
2021/05/28 06:00:59;;;;;;;16.80;5.00;;;;;;;13.38;65.08;99137.30;2172238;82;21002;-64
2021/05/28 06:04:00;;;;;;;13.75;4.72;;;;;;;13.47;65.21;99137.49;2172234;82;21065;-61
2021/05/28 06:07:01;;;;;;;15.43;4.80;;;;;;;13.63;66.40;99136.45;2172954;81;20991;-62
2021/05/28 06:10:01;;;;;;;11.83;3.60;;;;;;;13.80;65.11;99139.25;2172727;82;21010;-64
2021/05/28 06:13:02;;;;;;;10.72;3.72;;;;;;;13.92;61.71;99140.18;2172708;82;21022;-65
2021/05/28 06:16:03;;;;;;;13.55;4.03;;;;;;;13.86;63.57;99139.67;2172672;82;21624;-62
2021/05/28 06:19:03;;;;;;;11.08;3.80;;;;;;;14.01;64.08;99136.43;2172470;81;21580;-64
2021/05/28 06:22:04;;;;;;;10.55;3.72;;;;;;;14.03;62.08;99132.36;2172477;82;21049;-64
2021/05/28 06:25:04;;;;;;;11.18;3.35;;;;;;;14.02;61.27;99139.90;2172573;82;21006;-63
2021/05/28 06:28:06;;;;;;;11.43;3.98;;;;;;;14.07;62.07;99142.23;2172341;82;21046;-63
2021/05/28 06:31:06;;;;;;;15.40;4.22;;;;;;;14.29;63.28;99134.46;2172518;82;21941;-65
2021/05/28 06:34:06;;;;;;;11.73;3.75;;;;;;;14.52;63.07;99142.52;2172418;82;21632;-62
2021/05/28 06:37:08;;;;;;;11.55;4.17;;;;;;;14.48;62.13;99135.33;2172730;82;21581;-62
2021/05/28 06:40:10;;;;;;;12.78;3.77;;;;;;;14.75;60.54;99144.01;2172285;82;21022;-64
2021/05/28 06:43:11;;;;;;;11.08;3.77;;;;;;;14.60;60.00;99149.91;2172312;82;21572;-65
2021/05/28 06:46:12;;;;;;;10.85;3.70;;;;;;;14.56;59.83;99146.63;2172540;82;21022;-62
2021/05/28 06:49:12;;;;;;;11.38;3.70;;;;;;;14.78;58.51;99141.14;2172699;82;21025;-63
2021/05/28 06:52:12;;;;;;;11.53;3.87;;;;;;;14.85;59.84;99145.02;2172534;82;21050;-61
2021/05/28 06:55:13;;;;;;;11.25;4.20;;;;;;;15.04;58.61;99141.84;2172474;82;21057;-61
2021/05/28 06:58:14;;;;;;;10.75;3.30;;;;;;;15.12;59.66;99142.13;2172465;82;21096;-61
2021/05/28 07:01:14;;;;;;;7.75;2.90;;;;;;;15.52;56.79;99156.29;2172302;81;21589;-63
2021/05/28 07:04:15;;;;;;;8.55;2.58;;;;;;;15.09;55.83;99147.64;2172242;82;21075;-64
2021/05/28 07:07:15;;;;;;;7.80;3.10;;;;;;;14.84;56.81;99149.92;2172243;82;21021;-61
2021/05/28 07:10:18;;;;;;;7.90;3.20;;;;;;;15.29;59.18;99138.22;2172588;82;20990;-62
2021/05/28 07:13:19;;;;;;;7.42;2.90;;;;;;;15.94;58.06;99128.83;2172537;82;21070;-63
2021/05/28 07:16:19;;;;;;;6.00;2.55;;;;;;;16.60;56.42;99136.45;2145300;82;21057;-62
2021/05/28 07:19:20;;;;;;;6.80;2.40;;;;;;;16.92;55.12;99147.11;2172365;82;21041;-65
2021/05/28 07:25:23;;;;;;;8.40;2.65;;;;;;;16.85;54.69;99145.03;2145218;82;21599;-63
2021/05/28 07:28:23;;;;;;;6.60;2.58;;;;;;;16.92;51.73;99144.92;2172531;82;20993;-66
2021/05/28 07:31:24;;;;;;;8.03;2.92;;;;;;;16.78;53.40;99142.07;2172520;82;21002;-64
2021/05/28 07:34:24;;;;;;;7.45;2.87;;;;;;;16.17;53.97;99141.22;2172497;82;21042;-65
2021/05/28 07:37:25;;;;;;;7.05;2.90;;;;;;;15.67;55.69;99136.23;2172492;82;21607;-63
2021/05/28 07:40:25;;;;;;;7.33;2.60;;;;;;;15.73;54.50;99135.76;2172254;82;20990;-63
2021/05/28 07:43:25;;;;;;;7.28;2.70;;;;;;;16.19;53.16;99133.53;2172257;82;21002;-63
2021/05/28 07:46:26;;;;;;;7.47;2.95;;;;;;;16.57;53.66;99127.44;2172225;82;21064;-64
2021/05/28 07:49:26;;;;;;;11.15;3.40;;;;;;;17.02;52.11;99123.81;2172320;82;21025;-61
2021/05/28 07:52:27;;;;;;;7.72;3.00;;;;;;;17.03;51.56;99135.61;2172646;82;21034;-65
2021/05/28 07:55:27;;;;;;;6.47;2.72;;;;;;;16.69;53.21;99130.39;2172227;82;21046;-66
2021/05/28 07:58:29;;;;;;;9.30;2.85;;;;;;;16.22;53.06;99129.77;2172494;82;21013;-66
2021/05/28 08:01:30;;;;;;;6.95;2.70;;;;;;;15.85;53.21;99130.05;2172227;82;21581;-65
2021/05/28 08:04:30;;;;;;;6.65;2.77;;;;;;;16.11;53.91;99126.17;2170626;82;21061;-65
2021/05/28 08:07:31;;;;;;;4.03;2.40;;;;;;;16.95;53.37;99130.09;2168691;82;21066;-65
2021/05/28 08:10:31;;;;;;;6.62;2.35;;;;;;;17.28;51.58;99125.13;2168871;82;20991;-64
2021/05/28 08:13:32;;;;;;;5.28;2.20;;;;;;;16.85;51.56;99123.38;2168826;82;21038;-65
2021/05/28 08:16:33;;;;;;;7.92;2.85;;;;;;;16.38;52.54;99126.77;2168906;82;21030;-66
2021/05/28 08:19:34;;;;;;;5.00;2.60;;;;;;;15.87;53.24;99124.98;2168605;82;21520;-66
2021/05/28 08:22:34;;;;;;;6.85;2.72;;;;;;;15.59;54.77;99128.42;2168558;82;21090;-64
2021/05/28 08:25:35;;;;;;;12.13;2.90;;;;;;;15.39;53.13;99135.72;2168514;82;21018;-66
2021/05/28 08:28:35;;;;;;;7.83;2.83;;;;;;;15.18;54.83;99134.22;2168711;82;21022;-66
2021/05/28 08:31:36;;;;;;;9.65;2.60;;;;;;;15.06;54.56;99141.27;2169121;82;21038;-66
2021/05/28 08:34:37;;;;;;;7.78;2.40;;;;;;;14.93;53.90;99143.11;2168679;82;21596;-65
2021/05/28 08:37:37;;;;;;;12.25;3.22;;;;;;;14.87;55.17;99144.44;2168556;82;21030;-65
2021/05/28 08:40:38;;;;;;;7.62;2.83;;;;;;;14.99;56.18;99133.44;2168604;82;21077;-64
2021/05/28 08:43:38;;;;;;;9.13;3.30;;;;;;;15.11;56.12;99133.83;2168634;82;21026;-66
2021/05/28 08:46:39;;;;;;;6.58;2.65;;;;;;;15.31;56.79;99142.89;2168692;82;21053;-67
2021/05/28 08:49:40;;;;;;;10.75;3.15;;;;;;;15.48;53.60;99132.86;2168939;82;21137;-66
2021/05/28 08:52:40;;;;;;;6.85;2.70;;;;;;;15.76;54.55;99136.38;2168676;82;21541;-66
2021/05/28 08:55:41;;;;;;;8.05;2.90;;;;;;;15.87;54.38;99132.91;2168670;82;21066;-65
2021/05/28 08:58:43;;;;;;;7.28;2.77;;;;;;;15.94;55.15;99132.80;2149214;82;21785;-65
2021/05/28 09:01:44;;;;;;;10.00;2.80;;;;;;;16.08;53.36;99135.69;2168842;82;20975;-66
2021/05/28 09:04:44;;;;;;;8.08;2.83;;;;;;;16.18;53.06;99134.48;2170334;82;21058;-66
2021/05/28 09:07:45;;;;;;;8.30;3.10;;;;;;;16.22;53.67;99135.92;2172464;82;21022;-66
2021/05/28 09:10:45;;;;;;;8.33;2.98;;;;;;;16.11;52.78;99139.41;2172449;82;21516;-62
2021/05/28 09:13:46;;;;;;;8.00;3.05;;;;;;;15.96;52.71;99141.96;2172453;82;21017;-64
2021/05/28 09:16:46;;;;;;;8.53;2.90;;;;;;;15.93;52.17;99143.03;2172428;82;21573;-62
2021/05/28 09:19:47;;;;;;;6.15;2.50;;;;;;;16.09;54.18;99130.77;2172334;82;21038;-65
2021/05/28 09:22:47;;;;;;;4.90;2.40;;;;;;;16.23;52.11;99131.00;2172544;82;20994;-62
2021/05/28 09:25:48;;;;;;;5.03;2.45;;;;;;;16.35;52.84;99130.95;2172396;82;21013;-62
2021/05/28 09:28:48;;;;;;;5.55;2.45;;;;;;;16.57;50.95;99132.23;2172553;82;21512;-62
2021/05/28 09:31:49;;;;;;;6.30;2.33;;;;;;;17.08;49.81;99129.92;2172301;81;21473;-65
2021/05/28 09:34:50;;;;;;;5.35;2.27;;;;;;;17.11;49.96;99134.49;2172312;82;20994;-62
2021/05/28 09:37:51;;;;;;;6.47;2.42;;;;;;;17.05;50.99;99131.04;2172505;82;21058;-65
2021/05/28 09:40:52;;;;;;;10.27;3.10;;;;;;;16.94;48.71;99137.70;2172993;82;21006;-63
2021/05/28 09:43:52;;;;;;;5.37;2.20;;;;;;;16.87;49.79;99124.58;2172650;82;21627;-64
2021/05/28 09:46:53;;;;;;;5.10;2.20;;;;;;;16.87;49.12;99129.88;2172735;82;21148;-62
2021/05/28 09:49:54;;;;;;;6.87;2.52;;;;;;;16.91;48.70;99133.50;2172398;82;21010;-66
2021/05/28 09:52:55;;;;;;;5.75;2.33;;;;;;;17.05;50.26;99130.17;2172475;82;21010;-65
2021/05/28 09:55:55;;;;;;;7.03;2.52;;;;;;;17.11;50.12;99121.24;2172399;82;21030;-62
2021/05/28 09:58:56;;;;;;;7.55;2.42;;;;;;;17.24;49.02;99122.38;2172319;82;21033;-65
2021/05/28 10:01:57;;;;;;;9.65;2.42;;;;;;;17.30;48.03;99123.19;2172485;82;21014;-66
2021/05/28 10:04:57;;;;;;;6.15;2.00;;;;;;;17.51;49.19;99109.56;2170877;81;21101;-65
2021/05/28 10:07:58;;;;;;;3.52;2.00;;;;;;;17.62;48.12;99111.64;2168859;82;20978;-65
2021/05/28 10:10:59;;;;;;;7.35;1.80;;;;;;;17.63;47.26;99119.13;2169165;82;21572;-66
2021/05/28 10:13:59;;;;;;;6.22;2.12;;;;;;;17.42;48.59;99122.63;2168803;81;21037;-67
2021/05/28 10:17:00;;;;;;;9.45;2.20;;;;;;;18.00;49.24;99108.84;2169032;82;21034;-66
2021/05/28 10:20:00;;;;;;;3.90;1.80;;;;;;;18.65;47.65;99111.09;2168703;82;21010;-66
2021/05/28 10:23:00;;;;;;;5.75;1.87;;;;;;;19.09;47.09;99113.85;2168956;82;20994;-65
2021/05/28 10:26:01;;;;;;;5.22;1.92;;;;;;;18.90;45.98;99120.02;2168815;82;21003;-66
2021/05/28 10:29:02;;;;;;;6.67;2.20;;;;;;;18.82;45.09;99110.03;2169025;82;21123;-67
2021/05/28 10:32:05;;;;;;;3.05;1.77;;;;;;;19.50;44.35;99105.19;2168762;82;20999;-67
2021/05/28 10:38:08;;;;;;;4.72;1.90;;;;;;;19.16;45.63;99101.67;2149853;82;21110;-66
2021/05/28 10:41:08;;;;;;;4.58;1.87;;;;;;;18.55;43.95;99104.93;2168954;82;20987;-66
2021/05/28 10:44:09;;;;;;;9.38;2.12;;;;;;;18.21;46.03;99105.27;2168658;82;21006;-65
2021/05/28 10:47:10;;;;;;;5.12;2.00;;;;;;;18.18;47.00;99101.07;2168625;82;21164;-66
2021/05/28 10:50:10;;;;;;;3.40;1.87;;;;;;;18.39;45.33;99111.25;2169085;82;21014;-66
2021/05/28 10:53:11;;;;;;;5.28;2.02;;;;;;;18.19;45.02;99101.92;2169040;82;21101;-66
2021/05/28 10:56:12;;;;;;;4.62;2.00;;;;;;;18.91;43.96;99094.63;2168867;82;21082;-65
2021/05/28 10:59:13;;;;;;;4.00;1.77;;;;;;;19.39;44.74;99091.55;2168960;82;20995;-67
2021/05/28 11:02:16;;;;;;;5.62;1.80;;;;;;;19.71;42.05;99087.67;2168650;82;21029;-66
2021/05/28 11:05:16;;;;;;;6.85;2.12;;;;;;;20.12;45.03;99086.89;2176572;81;21568;-66
2021/05/28 11:08:17;;;;;;;5.90;2.25;;;;;;;20.40;46.28;99083.72;2185797;81;21010;-65
2021/05/28 11:11:17;;;;;;;5.60;2.20;;;;;;;20.52;45.27;99070.19;2185728;81;20997;-63
2021/05/28 11:14:18;;;;;;;4.93;1.60;;;;;;;21.10;44.32;99067.06;2185901;81;21140;-65
2021/05/28 11:17:18;;;;;;;2.13;1.30;;;;;;;21.27;40.87;99060.49;2185781;81;20982;-65
2021/05/28 11:20:19;;;;;;;6.37;1.90;;;;;;;21.13;39.12;99074.39;2185905;81;21010;-63
2021/05/28 11:23:19;;;;;;;9.17;2.10;;;;;;;20.93;38.99;99073.23;2186008;81;21504;-63
2021/05/28 11:26:20;;;;;;;5.90;1.97;;;;;;;21.11;40.34;99064.70;2185840;81;21049;-63
2021/05/28 11:29:20;;;;;;;4.43;1.80;;;;;;;20.49;41.11;99066.49;2185774;81;21029;-63
2021/05/28 11:32:20;;;;;;;5.95;1.62;;;;;;;20.08;41.24;99073.05;2185772;81;21101;-63
2021/05/28 11:35:21;;;;;;;2.50;1.42;;;;;;;19.97;42.94;99092.36;2185749;81;21077;-65
2021/05/28 11:38:22;;;;;;;1.63;1.03;;;;;;;19.08;42.91;99086.91;2185878;81;21002;-63
2021/05/28 11:41:22;;;;;;;4.80;1.25;;;;;;;18.56;43.00;99085.84;2185911;81;21009;-63
2021/05/28 11:44:23;;;;;;;3.08;1.25;;;;;;;18.03;43.94;99090.50;2185750;81;21113;-64
2021/05/28 11:47:23;;;;;;;2.83;1.30;;;;;;;17.66;44.74;99087.86;2185711;81;21025;-63
2021/05/28 11:50:23;;;;;;;1.52;0.95;;;;;;;17.71;44.77;99083.48;2185585;81;21521;-63
2021/05/28 11:53:24;;;;;;;5.70;1.37;;;;;;;17.81;46.55;99084.85;2185418;81;21041;-65
2021/05/28 11:56:24;;;;;;;3.62;1.00;;;;;;;17.70;45.99;99086.27;2185459;81;21093;-66
2021/05/28 11:59:25;;;;;;;2.92;1.50;;;;;;;17.71;46.04;99081.33;2185604;81;21013;-62
2021/05/28 12:02:27;;;;;;;4.25;1.60;;;;;;;17.73;47.12;99091.30;2158053;81;21065;-63
2021/05/28 12:05:29;;;;;;;4.62;1.60;;;;;;;17.73;47.12;99091.30;2179760;81;21074;-63
2021/05/28 12:08:30;;;;;;;3.45;1.45;;;;;;;17.87;46.56;99082.16;2172474;81;21038;-65
2021/05/28 12:11:30;;;;;;;5.10;1.77;;;;;;;18.13;45.83;99085.19;2172418;82;21525;-67
2021/05/28 12:14:30;;;;;;;3.15;1.50;;;;;;;18.66;46.66;99082.70;2172413;82;21583;-66
2021/05/28 12:17:31;;;;;;;6.47;1.55;;;;;;;19.18;45.03;99083.27;2172232;82;21062;-66
2021/05/28 12:20:31;;;;;;;2.02;1.40;;;;;;;19.15;43.55;99081.38;2172145;82;21014;-66
2021/05/28 12:23:32;;;;;;;5.08;1.90;;;;;;;18.89;44.64;99088.59;2172418;82;21053;-65
2021/05/28 12:26:32;;;;;;;2.60;1.77;;;;;;;18.60;44.88;99085.42;2172403;82;21025;-67
2021/05/28 12:29:33;;;;;;;4.60;1.47;;;;;;;18.78;46.29;99087.41;2172603;82;21066;-67
2021/05/28 12:32:33;;;;;;;8.48;2.10;;;;;;;19.20;46.72;99081.30;2172460;82;21022;-66
2021/05/28 12:35:34;;;;;;;5.23;2.07;;;;;;;18.69;46.19;99083.27;2172565;82;21018;-67
2021/05/28 12:38:35;;;;;;;3.12;1.72;;;;;;;18.22;46.34;99079.59;2172212;82;21410;-66
2021/05/28 12:41:35;;;;;;;5.03;1.82;;;;;;;18.57;46.30;99081.72;2172226;82;21002;-67
2021/05/28 12:44:36;;;;;;;4.62;2.05;;;;;;;18.73;45.77;99076.34;2172167;82;21117;-63
2021/05/28 12:47:36;;;;;;;5.05;1.85;;;;;;;19.50;47.10;99066.11;2172449;82;21423;-66
2021/05/28 12:50:37;;;;;;;6.12;1.98;;;;;;;20.11;43.47;99063.91;2172214;82;21077;-66
2021/05/28 12:53:37;;;;;;;5.50;2.10;;;;;;;20.12;41.62;99070.92;2172136;82;21038;-63
2021/05/28 12:56:38;;;;;;;5.80;2.00;;;;;;;19.84;42.19;99060.75;2172151;82;21104;-63
2021/05/28 12:59:38;;;;;;;5.10;1.82;;;;;;;20.51;44.14;99065.33;2172306;82;21030;-64
2021/05/28 13:02:40;;;;;;;5.08;1.90;;;;;;;20.33;42.27;99072.47;2172182;82;21033;-63
2021/05/28 13:05:41;;;;;;;4.47;1.57;;;;;;;19.37;43.42;99092.20;2172293;82;21046;-63
2021/05/28 13:08:41;;;;;;;7.58;1.57;;;;;;;17.95;46.45;99104.92;2172695;82;21010;-66
2021/05/28 13:11:42;;;;;;;2.52;1.40;;;;;;;16.89;46.04;99108.09;2172472;82;21002;-64
2021/05/28 13:14:43;;;;;;;3.37;1.27;;;;;;;16.07;50.05;99112.00;2172335;82;21041;-63
2021/05/28 13:17:43;;;;;;;65.20;25.55;;;;;;;15.51;51.34;99100.89;2172511;82;21077;-62
2021/05/28 13:20:44;;;;;;;23.02;6.62;;;;;;;15.43;53.81;99092.25;2172507;82;21025;-66
2021/05/28 13:23:44;;;;;;;10.40;2.60;;;;;;;15.80;53.75;99092.04;2172661;82;21022;-65
2021/05/28 13:26:45;;;;;;;6.35;2.20;;;;;;;16.25;52.51;99085.39;2172613;82;21521;-65
2021/05/28 13:29:45;;;;;;;8.85;2.70;;;;;;;16.51;53.33;99088.23;2172665;82;21520;-62
2021/05/28 13:32:46;;;;;;;12.10;3.60;;;;;;;16.75;53.26;99092.83;2172338;82;21018;-64
2021/05/28 13:35:47;;;;;;;10.48;3.30;;;;;;;17.23;54.25;99088.89;2172429;82;21081;-62
2021/05/28 13:38:48;;;;;;;9.57;2.47;;;;;;;17.72;55.84;99083.84;2172622;82;21126;-62
2021/05/28 13:41:51;;;;;;;4.83;1.77;;;;;;;18.35;54.18;99082.31;2172389;82;21041;-63
2021/05/28 13:44:51;;;;;;;7.85;2.30;;;;;;;18.97;52.43;99079.94;2145605;82;21117;-65
2021/05/28 13:47:51;;;;;;;10.95;2.55;;;;;;;19.33;51.30;99075.67;2172484;82;20994;-64
2021/05/28 13:50:53;;;;;;;11.15;2.90;;;;;;;20.16;51.05;99076.80;2172473;82;20994;-64
2021/05/28 13:53:54;;;;;;;11.95;3.00;;;;;;;20.19;48.72;99075.16;2172519;82;21118;-64
2021/05/28 13:56:54;;;;;;;4.92;2.30;;;;;;;20.05;49.30;99078.65;2172549;82;20966;-63
2021/05/28 13:59:54;;;;;;;5.78;2.40;;;;;;;19.99;48.59;99083.25;2172432;82;21521;-63
2021/05/28 14:02:55;;;;;;;7.08;2.30;;;;;;;20.00;48.37;99070.29;2172575;82;21624;-63
2021/05/28 14:05:55;;;;;;;5.85;2.30;;;;;;;19.96;47.73;99068.91;2172248;82;21022;-65
2021/05/28 14:08:56;;;;;;;5.65;2.27;;;;;;;19.89;47.84;99069.15;2172330;82;21003;-62
2021/05/28 14:11:56;;;;;;;5.92;2.22;;;;;;;19.82;48.76;99068.06;2172381;82;21416;-65
2021/05/28 14:14:57;;;;;;;8.13;2.37;;;;;;;19.82;48.23;99068.06;2172293;82;21065;-65
2021/05/28 14:17:57;;;;;;;7.65;2.58;;;;;;;19.77;47.97;99071.14;2172590;82;21034;-66